Time;durP1;ratioP1;P1;durP2;ratioP2;P2;SDS_P1;SDS_P2;PMS_P1;PMS_P2;Temp;Humidity;BMP_temperature;BMP_pressure;BME280_temperature;BME280_humidity;BME280_pressure;Samples;Min_cycle;Max_cycle;Signal;HPM_P1;HPM_P2
2022/01/20 00:03:40;;;;;;;12.63;6.60;;;2.20;98.70;;;;;;21138915;28;20097;-45
2022/01/20 00:34:37;;;;;;;;;;;-0.40;99.90;;;;;;21136692;28;20039;-46
2022/01/20 00:44:40;;;;;;;90.05;36.08;;;-0.70;99.90;;;;;;21135598;28;20259;-45
2022/01/20 00:54:42;;;;;;;33.70;17.20;;;-1.00;99.90;;;;;;21135070;28;20562;-45
2022/01/20 01:04:46;;;;;;;57.75;26.95;;;-0.80;99.90;;;;;;21134683;28;20043;-44
2022/01/20 01:14:51;;;;;;;57.00;25.50;;;-0.50;99.90;;;;;;21125129;28;20104;-45
2022/01/20 01:24:55;;;;;;;58.38;26.95;;;-0.60;99.90;;;;;;21133646;28;20084;-48
2022/01/20 01:35:00;;;;;;;67.55;33.63;;;-0.70;99.90;;;;;;21137774;28;20061;-47
2022/01/20 01:45:16;;;;;;;63.95;30.75;;;-0.60;99.90;;;;;;21149808;28;20077;-46
2022/01/20 01:55:20;;;;;;;81.70;41.53;;;-0.60;99.90;;;;;;21148984;28;20035;-45
2022/01/20 02:05:24;;;;;;;56.15;29.38;;;-0.60;99.90;;;;;;21148336;28;20035;-44
2022/01/20 02:26:01;;;;;;;68.05;31.42;;;-0.40;99.90;;;;;;21146957;28;20028;-45
2022/01/20 02:36:11;;;;;;;76.82;36.20;;;-0.50;99.90;;;;;;21128998;28;20043;-49
2022/01/20 02:46:14;;;;;;;;;;;-0.40;99.90;;;;;;21146382;28;20031;-44
2022/01/20 02:56:18;;;;;;;53.92;26.98;;;-0.20;99.90;;;;;;21128174;28;20039;-45
2022/01/20 03:06:22;;;;;;;69.30;31.92;;;-0.10;99.90;;;;;;21144636;28;20383;-49
2022/01/20 03:16:24;;;;;;;83.60;38.60;;;-0.40;99.90;;;;;;21142532;28;20048;-45
2022/01/20 03:26:27;;;;;;;78.22;36.67;;;-0.50;99.90;;;;;;21141770;28;20031;-45
2022/01/20 03:36:30;;;;;;;86.35;38.42;;;-0.60;99.90;;;;;;21124324;28;20031;-44
2022/01/20 03:46:38;;;;;;;81.22;35.33;;;-0.70;99.90;;;;;;21124363;28;20036;-46
2022/01/20 03:56:40;;;;;;;80.57;35.85;;;-0.70;99.90;;;;;;21121907;28;20039;-46
2022/01/20 04:07:03;;;;;;;90.55;39.92;;;-0.30;99.90;;;;;;21138446;28;20387;-49
2022/01/20 04:17:14;;;;;;;242.20;47.50;;;-0.70;99.90;;;;;;21137777;28;20403;-45
2022/01/20 04:27:17;;;;;;;313.42;47.17;;;-0.90;99.90;;;;;;21137192;28;20092;-47
2022/01/20 04:37:20;;;;;;;99.40;42.70;;;-0.90;99.90;;;;;;21136203;28;20450;-51
2022/01/20 04:57:34;;;;;;;127.20;48.45;;;-1.00;99.90;;;;;;21118395;28;20031;-46
2022/01/20 05:07:38;;;;;;;158.98;60.45;;;-1.10;99.90;;;;;;21134408;28;20444;-44
2022/01/20 05:17:42;;;;;;;129.13;51.42;;;-0.90;99.90;;;;;;21133666;28;20100;-45
2022/01/20 05:27:45;;;;;;;80.53;32.88;;;-0.80;99.90;;;;;;21133732;28;20035;-44
2022/01/20 05:37:47;;;;;;;107.47;44.83;;;-0.60;99.90;;;;;;21116265;28;20088;-46
2022/01/20 05:47:59;;;;;;;91.20;40.40;;;-0.60;99.90;;;;;;21116245;28;20035;-47
2022/01/20 05:58:33;;;;;;;90.13;38.00;;;-0.70;99.90;;;;;;21116156;28;20431;-44
2022/01/20 06:08:38;;;;;;;82.95;36.47;;;-0.70;99.90;;;;;;21132258;28;20096;-45
2022/01/20 06:18:41;;;;;;;77.38;34.38;;;-0.60;99.90;;;;;;21065173;28;20101;-45
2022/01/20 06:28:45;;;;;;;57.15;26.33;;;-0.50;99.90;;;;;;21079417;28;20036;-45
2022/01/20 06:38:49;;;;;;;50.83;22.88;;;-0.40;99.90;;;;;;21078131;28;20065;-45
2022/01/20 06:48:52;;;;;;;48.83;22.92;;;-0.70;99.90;;;;;;21077786;28;20040;-44
2022/01/20 06:59:26;;;;;;;33.35;15.63;;;-1.20;99.90;;;;;;20818945;28;20057;-46
2022/01/20 07:09:31;;;;;;;18.25;9.27;;;-1.60;99.90;;;;;;20802075;28;20092;-45
2022/01/20 07:19:39;;;;;;;15.10;6.68;;;-1.80;99.90;;;;;;20801219;28;20076;-45
2022/01/20 07:29:45;;;;;;;10.80;4.65;;;-1.60;99.90;;;;;;20879198;28;20044;-46
2022/01/20 07:39:48;;;;;;;7.13;3.58;;;-1.40;99.90;;;;;;20989948;28;20036;-45
2022/01/20 07:49:51;;;;;;;10.85;4.38;;;-1.30;99.90;;;;;;21029353;28;20036;-44
2022/01/20 07:59:53;;;;;;;7.47;4.30;;;-1.20;99.90;;;;;;21073370;28;20043;-45
2022/01/20 08:10:05;;;;;;;8.13;4.05;;;-0.50;99.90;;;;;;21071365;28;20089;-48
2022/01/20 08:20:10;;;;;;;33.22;15.70;;;0.60;99.90;;;;;;21070534;28;20491;-44
2022/01/20 08:30:16;;;;;;;31.30;15.43;;;1.30;99.90;;;;;;21053744;28;20089;-44
2022/01/20 08:40:22;;;;;;;27.45;14.65;;;1.50;99.90;;;;;;21052372;28;20070;-45
2022/01/20 08:50:29;;;;;;;25.48;13.13;;;2.40;99.90;;;;;;21067999;28;20105;-44
2022/01/20 09:00:35;;;;;;;20.48;11.88;;;2.70;99.90;;;;;;21068058;28;20105;-45
2022/01/20 09:10:47;;;;;;;12.40;6.80;;;2.90;99.90;;;;;;21069673;28;20680;-45
2022/01/20 09:20:54;;;;;;;4.43;2.13;;;3.30;99.90;;;;;;21117486;28;20388;-44
2022/01/20 09:31:00;;;;;;;4.63;1.92;;;4.00;94.80;;;;;;21133898;28;20036;-44
2022/01/20 09:41:05;;;;;;;3.92;2.00;;;4.40;93.90;;;;;;21133532;28;20100;-44
2022/01/20 09:51:13;;;;;;;3.97;1.90;;;4.60;92.00;;;;;;21132482;28;20044;-44
2022/01/20 10:01:48;;;;;;;6.22;2.85;;;5.20;90.70;;;;;;21143057;28;20055;-44
2022/01/20 10:11:59;;;;;;;3.65;1.60;;;5.50;92.00;;;;;;21148637;28;20059;-45
2022/01/20 10:22:23;;;;;;;4.15;1.50;;;5.80;84.50;;;;;;20821962;28;20065;-46
2022/01/20 10:32:57;;;;;;;2.70;1.37;;;5.70;79.60;;;;;;20804579;28;20046;-45
2022/01/20 10:43:00;;;;;;;2.20;1.40;;;5.50;80.10;;;;;;20804201;28;20448;-44
2022/01/20 10:53:03;;;;;;;17.35;8.50;;;5.70;79.50;;;;;;20885146;28;20039;-45
2022/01/20 11:03:07;;;;;;;3.40;1.83;;;5.60;90.90;;;;;;21143982;28;20371;-45
2022/01/20 11:13:13;;;;;;;12.57;6.90;;;5.90;86.20;;;;;;21142285;28;20043;-44
2022/01/20 11:23:18;;;;;;;12.27;6.43;;;6.20;90.00;;;;;;21142488;28;20100;-46
2022/01/20 11:33:40;;;;;;;9.48;6.05;;;6.30;92.10;;;;;;21141151;28;20040;-50
2022/01/20 11:43:49;;;;;;;16.02;8.02;;;6.60;91.70;;;;;;21141060;28;20043;-45
2022/01/20 11:54:01;;;;;;;11.38;6.55;;;6.60;92.80;;;;;;21139691;28;20036;-44
2022/01/20 12:04:04;;;;;;;12.40;6.32;;;6.80;90.90;;;;;;21139458;28;20035;-44
2022/01/20 12:14:38;;;;;;;11.50;7.05;;;7.00;90.00;;;;;;21138271;28;20039;-47
2022/01/20 12:24:54;;;;;;;12.02;6.93;;;6.80;91.00;;;;;;21136612;28;20618;-46
2022/01/20 12:35:01;;;;;;;10.68;5.50;;;7.00;91.50;;;;;;21136697;28;20036;-45
2022/01/20 12:45:55;;;;;;;10.05;5.22;;;7.20;90.40;;;;;;21136003;28;20040;-46
2022/01/20 12:55:28;;;;;;;11.30;6.25;;;7.40;87.60;;;;;;21135106;28;20027;-45
2022/01/20 13:05:33;;;;;;;13.70;7.90;;;7.50;89.80;;;;;;21135356;28;20032;-45
2022/01/20 13:15:36;;;;;;;9.63;5.35;;;7.50;90.30;;;;;;21133746;28;20055;-44
2022/01/20 13:25:40;;;;;;;13.02;6.45;;;7.30;88.30;;;;;;21133512;28;20394;-44
2022/01/20 13:35:48;;;;;;;6.57;3.38;;;6.80;88.50;;;;;;21147984;28;20047;-45
2022/01/20 13:45:52;;;;;;;3.60;1.90;;;6.30;83.30;;;;;;21150424;28;20053;-45
2022/01/20 13:56:03;;;;;;;2.30;1.27;;;5.50;80.40;;;;;;21150284;28;20543;-44
2022/01/20 14:06:06;;;;;;;2.80;1.45;;;5.20;78.50;;;;;;21148797;28;20039;-47
2022/01/20 14:16:09;;;;;;;2.17;1.20;;;4.90;79.40;;;;;;21147723;28;20044;-46
2022/01/20 14:26:13;;;;;;;3.72;1.55;;;4.70;78.60;;;;;;21147907;28;20039;-45
2022/01/20 14:36:16;;;;;;;4.28;2.47;;;4.60;78.60;;;;;;21146016;28;20061;-49
2022/01/20 14:46:19;;;;;;;3.20;1.30;;;4.50;82.60;;;;;;21144493;28;20027;-47
2022/01/20 14:56:22;;;;;;;3.20;1.58;;;4.40;80.60;;;;;;21144675;28;20065;-45
2022/01/20 15:06:25;;;;;;;2.50;1.63;;;4.20;79.00;;;;;;21143971;28;20379;-45
2022/01/20 15:16:27;;;;;;;2.80;1.35;;;4.00;79.90;;;;;;21142589;28;20048;-48
2022/01/20 15:26:30;;;;;;;2.67;1.50;;;3.70;81.10;;;;;;21142406;28;20363;-44
2022/01/20 15:36:34;;;;;;;6.22;2.60;;;2.90;83.90;;;;;;21141770;28;20039;-45
2022/01/20 15:46:37;;;;;;;8.98;4.38;;;2.20;87.50;;;;;;21140956;28;20489;-48
2022/01/20 15:56:40;;;;;;;3.55;1.83;;;1.60;89.30;;;;;;21139122;28;20027;-44
2022/01/20 16:06:46;;;;;;;7.03;3.15;;;1.20;90.80;;;;;;21139122;28;20031;-44
2022/01/20 16:16:49;;;;;;;1.73;0.98;;;0.90;91.10;;;;;;21137843;28;20479;-45
2022/01/20 16:26:51;;;;;;;2.00;0.80;;;0.60;91.00;;;;;;21137372;28;20552;-45
2022/01/20 16:36:54;;;;;;;2.15;1.10;;;0.40;91.10;;;;;;21136494;28;20077;-45
2022/01/20 16:46:59;;;;;;;1.27;0.70;;;0.30;91.50;;;;;;21137207;28;20048;-46
2022/01/20 16:57:02;;;;;;;1.40;0.52;;;-0.10;92.40;;;;;;21134953;28;20039;-45
2022/01/20 17:07:04;;;;;;;1.58;0.80;;;-0.50;93.30;;;;;;21135385;28;20481;-45
2022/01/20 17:17:07;;;;;;;2.55;1.10;;;-0.60;94.00;;;;;;21134150;28;20052;-46
2022/01/20 17:27:12;;;;;;;1.85;0.82;;;-0.70;94.10;;;;;;21134089;28;20104;-44
2022/01/20 17:37:15;;;;;;;1.35;0.50;;;-0.80;94.30;;;;;;21133357;28;20035;-47
2022/01/20 17:47:18;;;;;;;0.77;0.40;;;-0.70;93.70;;;;;;21133271;28;20043;-45
2022/01/20 17:57:22;;;;;;;0.80;0.30;;;-0.70;92.60;;;;;;21132533;28;20107;-48
2022/01/20 18:07:24;;;;;;;1.38;0.50;;;-0.70;92.50;;;;;;21132127;28;20032;-44
2022/01/20 18:17:32;;;;;;;0.90;0.40;;;-0.70;92.20;;;;;;21137080;28;20048;-47
2022/01/20 18:27:38;;;;;;;1.70;0.50;;;-0.30;90.60;;;;;;21147149;28;20043;-45
2022/01/20 18:37:41;;;;;;;1.58;0.52;;;0.20;89.10;;;;;;21145992;28;20024;-46
2022/01/20 18:47:44;;;;;;;1.60;0.55;;;0.30;86.80;;;;;;21145889;28;20032;-46
2022/01/20 18:57:48;;;;;;;2.00;0.60;;;0.30;86.10;;;;;;21144316;28;20107;-45
2022/01/20 19:07:51;;;;;;;0.77;0.35;;;0.40;85.30;;;;;;21143694;28;20057;-49
2022/01/20 19:17:54;;;;;;;1.38;0.40;;;0.30;85.60;;;;;;21161200;28;20097;-44
2022/01/20 19:27:57;;;;;;;1.00;0.40;;;0.20;83.70;;;;;;21141868;28;20090;-46
2022/01/20 19:38:00;;;;;;;1.20;0.30;;;0.30;84.00;;;;;;21141526;28;20171;-48
2022/01/20 19:48:03;;;;;;;1.20;0.50;;;-0.20;85.50;;;;;;21140553;28;20073;-46
2022/01/20 19:58:07;;;;;;;0.90;0.43;;;-0.40;85.90;;;;;;21139641;28;20027;-45
2022/01/20 20:08:13;;;;;;;0.77;0.30;;;-0.40;85.90;;;;;;21139374;28;20032;-45
2022/01/20 20:18:15;;;;;;;1.23;0.38;;;-0.20;84.40;;;;;;21138115;28;20560;-47
2022/01/20 20:28:18;;;;;;;0.73;0.30;;;-0.10;83.70;;;;;;21137548;28;20039;-45
2022/01/20 20:38:21;;;;;;;0.80;0.40;;;-0.10;82.20;;;;;;21135831;28;20035;-45
2022/01/20 20:48:24;;;;;;;1.90;0.60;;;-0.20;82.50;;;;;;21135753;28;20395;-47
2022/01/20 20:58:27;;;;;;;1.98;0.50;;;-0.20;82.50;;;;;;21135460;28;20035;-45
2022/01/20 21:08:31;;;;;;;0.82;0.40;;;-0.30;81.40;;;;;;21135535;28;20108;-45
2022/01/20 21:18:35;;;;;;;1.60;0.38;;;-0.20;80.40;;;;;;21133974;28;20154;-46
2022/01/20 21:28:42;;;;;;;0.50;0.38;;;-0.20;80.40;;;;;;21134016;28;20061;-47
2022/01/20 21:38:48;;;;;;;1.65;0.40;;;-0.30;79.20;;;;;;21133762;28;20032;-47
2022/01/20 21:48:51;;;;;;;0.75;0.30;;;-0.30;78.90;;;;;;21134291;28;20432;-45
2022/01/20 21:58:54;;;;;;;0.55;0.10;;;-0.30;78.20;;;;;;21149671;28;20084;-45
2022/01/20 22:08:58;;;;;;;3.38;0.30;;;-0.40;77.30;;;;;;21148687;28;20552;-44
2022/01/20 22:19:01;;;;;;;0.55;0.13;;;-0.40;76.70;;;;;;21080112;28;20070;-45
2022/01/20 22:29:04;;;;;;;0.38;0.10;;;-0.40;76.70;;;;;;21079618;28;20101;-46
2022/01/20 22:39:07;;;;;;;0.20;0.10;;;-0.50;75.50;;;;;;21078818;28;20372;-45
2022/01/20 22:49:11;;;;;;;0.10;0.10;;;-0.60;76.60;;;;;;21078259;28;20039;-45
2022/01/20 22:59:15;;;;;;;0.30;0.10;;;-0.70;76.20;;;;;;21077482;28;20082;-46
2022/01/20 23:09:23;;;;;;;0.30;0.10;;;-0.70;76.00;;;;;;21043430;28;20040;-44
2022/01/20 23:29:29;;;;;;;0.10;0.00;;;-0.80;75.00;;;;;;21075078;28;20036;-46
2022/01/20 23:39:32;;;;;;;0.00;0.00;;;-0.70;72.80;;;;;;21074386;28;20470;-45
2022/01/20 23:49:36;;;;;;;0.00;0.00;;;-0.50;72.30;;;;;;21073176;28;20036;-46
2022/01/20 23:59:39;;;;;;;0.20;0.03;;;-0.40;71.50;;;;;;21072135;28;20089;-44
